Time;durP1;ratioP1;P1;durP2;ratioP2;P2;SDS_P1;SDS_P2;PMS_P1;PMS_P2;Temp;Humidity;BMP_temperature;BMP_pressure;BME280_temperature;BME280_humidity;BME280_pressure;Samples;Min_cycle;Max_cycle;Signal;HPM_P1;HPM_P2
2021/11/01 00:01:58;;;;;;;10.25;7.05;;;12.40;99.90;;;;;;5055666;28;20036;-66
2021/11/01 00:04:24;;;;;;;8.95;7.13;;;12.30;99.90;;;;;;5054587;28;20033;-66
2021/11/01 00:06:49;;;;;;;9.27;6.88;;;12.20;99.90;;;;;;5054665;28;20379;-66
2021/11/01 00:09:15;;;;;;;8.65;5.97;;;12.10;99.90;;;;;;5054422;28;20029;-66
2021/11/01 00:11:41;;;;;;;9.35;6.72;;;12.10;99.90;;;;;;5054547;28;20083;-66
2021/11/01 00:14:07;;;;;;;8.77;6.53;;;12.00;99.90;;;;;;5054263;28;20033;-66
2021/11/01 00:16:33;;;;;;;9.00;5.88;;;12.00;99.90;;;;;;5052744;28;20436;-66
2021/11/01 00:18:58;;;;;;;7.88;5.53;;;11.90;99.90;;;;;;5054711;28;20528;-66
2021/11/01 00:21:24;;;;;;;7.57;4.95;;;12.00;99.90;;;;;;5053487;28;20064;-66
2021/11/01 00:23:51;;;;;;;11.43;5.72;;;11.90;99.90;;;;;;5054482;28;20097;-66
2021/11/01 00:26:18;;;;;;;8.70;5.68;;;11.90;99.90;;;;;;5054372;28;20083;-66
2021/11/01 00:28:44;;;;;;;7.43;5.55;;;12.00;99.90;;;;;;5053820;28;20501;-65
2021/11/01 00:31:13;;;;;;;3.38;2.70;;;12.00;99.90;;;;;;5054676;28;20040;-66
2021/11/01 00:33:39;;;;;;;3.20;2.20;;;12.10;99.90;;;;;;5053747;28;20599;-66
2021/11/01 00:36:05;;;;;;;4.18;1.92;;;12.30;99.90;;;;;;5054492;28;20025;-66
2021/11/01 00:38:30;;;;;;;2.20;1.63;;;12.40;99.90;;;;;;5053419;28;20037;-66
2021/11/01 00:40:56;;;;;;;2.15;1.75;;;12.70;99.90;;;;;;5054117;28;20029;-66
2021/11/01 00:43:22;;;;;;;3.63;1.50;;;12.90;99.90;;;;;;5051982;28;20040;-66
2021/11/01 00:45:48;;;;;;;1.92;1.30;;;13.20;99.90;;;;;;5053312;28;20067;-66
2021/11/01 00:48:14;;;;;;;2.38;1.38;;;13.50;99.90;;;;;;5053907;28;20530;-67
2021/11/01 00:50:40;;;;;;;1.33;1.00;;;13.80;99.90;;;;;;5053350;28;20025;-66
2021/11/01 00:53:07;;;;;;;2.15;1.35;;;14.00;99.90;;;;;;5054000;28;20025;-66
2021/11/01 00:55:36;;;;;;;3.15;1.15;;;14.20;99.90;;;;;;5053295;28;20079;-66
2021/11/01 00:58:03;;;;;;;6.05;0.90;;;14.40;99.90;;;;;;5053510;28;20037;-66
2021/11/01 01:00:29;;;;;;;1.50;0.77;;;14.60;99.90;;;;;;5053017;28;20072;-67
2021/11/01 01:02:56;;;;;;;2.83;0.70;;;14.90;99.90;;;;;;5053640;28;20057;-66
2021/11/01 01:05:22;;;;;;;3.08;1.02;;;15.00;99.90;;;;;;5053136;28;20382;-67
2021/11/01 01:07:48;;;;;;;3.00;0.90;;;15.10;99.90;;;;;;5053403;28;20032;-67
2021/11/01 01:10:14;;;;;;;2.10;0.93;;;15.20;99.90;;;;;;5053984;28;20527;-67
2021/11/01 01:12:42;;;;;;;1.63;0.75;;;15.40;99.90;;;;;;5052998;28;20676;-67
2021/11/01 01:15:15;;;;;;;2.72;0.85;;;15.50;99.90;;;;;;5053733;28;20025;-67
2021/11/01 01:17:42;;;;;;;0.70;0.38;;;15.70;99.90;;;;;;5052714;28;20029;-67
2021/11/01 01:20:12;;;;;;;1.27;0.70;;;15.70;99.90;;;;;;5053729;28;20032;-67
2021/11/01 01:22:39;;;;;;;1.48;0.95;;;15.80;99.90;;;;;;5038054;28;20037;-66
2021/11/01 01:25:21;;;;;;;1.23;0.75;;;15.90;99.90;;;;;;5053667;28;20040;-67
2021/11/01 01:27:49;;;;;;;0.80;0.80;;;16.00;99.90;;;;;;5052178;28;20029;-67
2021/11/01 01:30:15;;;;;;;1.45;0.70;;;16.10;99.90;;;;;;5053437;28;20030;-66
2021/11/01 01:32:42;;;;;;;1.17;0.63;;;16.10;99.90;;;;;;5052351;28;20028;-66
2021/11/01 01:35:09;;;;;;;0.90;0.60;;;16.10;99.90;;;;;;5053403;28;20040;-66
2021/11/01 01:37:35;;;;;;;0.70;0.50;;;16.10;99.90;;;;;;5051751;28;20036;-66
2021/11/01 01:40:01;;;;;;;0.52;0.50;;;16.10;99.90;;;;;;5053191;28;20033;-66
2021/11/01 01:42:27;;;;;;;1.00;0.70;;;16.10;99.90;;;;;;5051585;28;20040;-66
2021/11/01 01:44:53;;;;;;;2.00;0.70;;;16.00;99.90;;;;;;5052587;28;20406;-66
2021/11/01 01:47:18;;;;;;;1.50;0.82;;;15.90;99.90;;;;;;5052815;28;20021;-66
2021/11/01 01:49:44;;;;;;;0.90;0.60;;;15.90;99.90;;;;;;5051788;28;20122;-66
2021/11/01 01:52:10;;;;;;;1.13;0.60;;;15.80;99.90;;;;;;5052610;28;20524;-66
2021/11/01 01:54:36;;;;;;;1.15;0.63;;;15.70;99.90;;;;;;5052036;28;20104;-66
2021/11/01 01:57:02;;;;;;;1.58;0.80;;;15.80;99.90;;;;;;5052663;28;20136;-66
2021/11/01 01:59:29;;;;;;;3.25;1.52;;;15.80;99.90;;;;;;5051705;28;20413;-66
2021/11/01 02:01:56;;;;;;;1.95;1.05;;;15.70;99.90;;;;;;5052953;28;20072;-66
2021/11/01 02:04:25;;;;;;;2.50;1.20;;;15.60;99.90;;;;;;5051515;28;20474;-67
2021/11/01 02:07:22;;;;;;;3.38;1.33;;;15.50;99.90;;;;;;5052170;28;20028;-66
2021/11/01 02:10:12;;;;;;;3.88;1.73;;;15.30;99.90;;;;;;5051986;28;20032;-66
2021/11/01 02:12:53;;;;;;;1.60;0.77;;;15.10;99.90;;;;;;5051311;28;20545;-66
2021/11/01 02:15:29;;;;;;;2.22;0.65;;;14.90;99.90;;;;;;5051731;28;20342;-66
2021/11/01 02:17:57;;;;;;;3.92;0.95;;;14.70;99.90;;;;;;5052411;28;20489;-66
2021/11/01 02:20:48;;;;;;;2.53;0.40;;;14.50;99.90;;;;;;5050429;28;20612;-66
2021/11/01 02:23:30;;;;;;;1.92;0.55;;;14.30;99.90;;;;;;5051886;28;20117;-66
2021/11/01 02:25:58;;;;;;;1.52;0.52;;;14.10;99.90;;;;;;5052601;28;20071;-66
2021/11/01 02:28:34;;;;;;;2.90;1.10;;;14.00;99.90;;;;;;5051234;28;20478;-66
2021/11/01 02:31:03;;;;;;;3.30;0.50;;;13.80;99.90;;;;;;5052273;28;20028;-66
2021/11/01 02:33:30;;;;;;;3.95;0.98;;;13.60;99.90;;;;;;5050660;28;20036;-66
2021/11/01 02:35:56;;;;;;;4.18;0.60;;;13.50;99.90;;;;;;5052117;28;20359;-67
2021/11/01 02:38:25;;;;;;;3.13;0.63;;;13.40;99.90;;;;;;5051593;28;20052;-65
2021/11/01 02:40:52;;;;;;;3.40;0.60;;;13.30;99.90;;;;;;5052294;28;20524;-66
2021/11/01 02:43:18;;;;;;;3.30;0.40;;;13.00;99.90;;;;;;5051705;28;20037;-65
2021/11/01 02:45:45;;;;;;;3.13;0.40;;;12.80;99.90;;;;;;5051459;28;20518;-66
2021/11/01 02:48:11;;;;;;;1.60;0.45;;;12.50;99.90;;;;;;5052037;28;20044;-66
2021/11/01 02:50:37;;;;;;;6.22;0.77;;;12.30;99.90;;;;;;5051209;28;20029;-66
2021/11/01 02:53:03;;;;;;;2.05;0.50;;;12.10;99.90;;;;;;5051527;28;20078;-66
2021/11/01 02:55:30;;;;;;;4.90;0.80;;;12.00;99.90;;;;;;5051085;28;20022;-66
2021/11/01 02:57:55;;;;;;;1.77;0.85;;;11.90;99.90;;;;;;5051861;28;20087;-66
2021/11/01 03:00:25;;;;;;;2.90;0.60;;;11.70;99.90;;;;;;5051349;28;20037;-66
2021/11/01 03:02:51;;;;;;;5.30;0.80;;;11.50;99.90;;;;;;5051790;28;20021;-66
2021/11/01 03:05:22;;;;;;;3.17;1.05;;;11.40;99.90;;;;;;5051800;28;20044;-66
2021/11/01 03:07:52;;;;;;;3.63;0.70;;;11.30;99.90;;;;;;5050826;28;20032;-66
2021/11/01 03:10:18;;;;;;;3.95;0.63;;;11.30;99.90;;;;;;5051817;28;20033;-66
2021/11/01 03:12:46;;;;;;;3.55;0.77;;;11.20;99.90;;;;;;5050460;28;20623;-66
2021/11/01 03:15:21;;;;;;;4.13;0.70;;;11.20;99.90;;;;;;5051501;28;20025;-65
2021/11/01 03:18:01;;;;;;;5.90;0.55;;;11.10;99.90;;;;;;5051008;28;20060;-65
2021/11/01 03:20:35;;;;;;;4.18;0.63;;;11.10;99.90;;;;;;5050641;28;20040;-66
2021/11/01 03:23:08;;;;;;;2.95;0.50;;;11.00;99.90;;;;;;5051029;28;20033;-66
2021/11/01 03:25:39;;;;;;;3.88;0.60;;;10.90;99.90;;;;;;5050836;28;20485;-66
2021/11/01 03:28:07;;;;;;;2.90;0.50;;;10.90;99.90;;;;;;5051821;28;20150;-66
2021/11/01 03:30:34;;;;;;;2.63;0.60;;;10.80;99.90;;;;;;5050403;28;20440;-66
2021/11/01 03:33:02;;;;;;;4.25;0.52;;;10.80;99.90;;;;;;5051076;28;20022;-66
2021/11/01 03:35:29;;;;;;;2.97;0.50;;;10.80;99.90;;;;;;5050771;28;20036;-67
2021/11/01 03:37:57;;;;;;;4.68;1.25;;;10.70;99.90;;;;;;5051584;28;20029;-66
2021/11/01 03:40:26;;;;;;;5.28;0.88;;;10.50;99.90;;;;;;5032767;28;20041;-66
2021/11/01 03:42:54;;;;;;;4.43;0.50;;;10.40;99.90;;;;;;5038831;28;20029;-66
2021/11/01 03:45:22;;;;;;;4.72;0.60;;;10.20;99.90;;;;;;5049735;28;20044;-66
2021/11/01 03:47:49;;;;;;;3.13;0.68;;;10.10;99.90;;;;;;5049472;28;20476;-66
2021/11/01 03:50:41;;;;;;;6.18;0.90;;;10.10;99.90;;;;;;5049210;28;20021;-66
2021/11/01 03:53:01;;;;;;;6.22;0.50;;;10.10;99.90;;;;;;5046455;28;20379;-66
2021/11/01 03:55:30;;;;;;;3.95;1.52;;;9.90;99.90;;;;;;5049197;28;20112;-66
2021/11/01 03:57:58;;;;;;;2.28;0.40;;;9.90;99.90;;;;;;5049567;28;20071;-66
2021/11/01 04:00:27;;;;;;;4.53;0.82;;;9.80;99.90;;;;;;5045866;28;20432;-66
2021/11/01 04:02:53;;;;;;;3.70;0.95;;;9.70;99.90;;;;;;5049257;28;20141;-66
2021/11/01 04:05:19;;;;;;;2.92;0.55;;;9.70;99.90;;;;;;5049645;28;20070;-66
2021/11/01 04:07:45;;;;;;;3.78;0.52;;;9.70;99.90;;;;;;5048324;28;20025;-66
2021/11/01 04:10:12;;;;;;;6.80;1.23;;;9.60;99.90;;;;;;5049896;28;20382;-66
2021/11/01 04:12:38;;;;;;;3.88;0.82;;;9.70;99.90;;;;;;5048133;28;20458;-66
2021/11/01 04:15:18;;;;;;;6.18;0.80;;;9.60;99.90;;;;;;5049862;28;20051;-66
2021/11/01 04:17:51;;;;;;;3.72;0.85;;;9.60;99.90;;;;;;5045832;28;20580;-66
2021/11/01 04:22:51;;;;;;;5.47;0.60;;;9.60;99.90;;;;;;5052814;28;20040;-66
2021/11/01 04:25:19;;;;;;;9.23;0.70;;;9.50;99.90;;;;;;5052506;28;20062;-66
2021/11/01 04:27:45;;;;;;;6.75;0.90;;;9.50;99.90;;;;;;5052031;28;20043;-66
2021/11/01 04:30:11;;;;;;;4.00;0.60;;;9.50;99.90;;;;;;5053511;28;20029;-66
2021/11/01 04:32:50;;;;;;;5.63;0.80;;;9.50;99.90;;;;;;5052327;28;20393;-66
2021/11/01 04:35:22;;;;;;;5.75;1.08;;;9.50;99.90;;;;;;5050810;28;20113;-66
2021/11/01 04:37:51;;;;;;;4.43;0.90;;;9.50;99.90;;;;;;5049874;28;20053;-66
2021/11/01 04:53:49;;;;;;;4.85;1.00;;;9.40;99.90;;;;;;5025448;28;20050;-66
2021/11/01 04:56:22;;;;;;;3.10;0.68;;;9.40;99.90;;;;;;5034509;28;20096;-66
2021/11/01 04:58:48;;;;;;;3.80;0.68;;;9.40;99.90;;;;;;5033304;28;20037;-66
2021/11/01 05:01:18;;;;;;;6.90;1.00;;;9.40;99.90;;;;;;5034052;28;20593;-66
2021/11/01 05:03:47;;;;;;;2.00;0.70;;;9.40;99.90;;;;;;5051695;28;20028;-66
2021/11/01 05:06:18;;;;;;;3.08;0.70;;;9.40;99.90;;;;;;5054066;28;20037;-66
2021/11/01 05:08:47;;;;;;;6.45;1.17;;;9.40;99.90;;;;;;5052952;28;20574;-66
2021/11/01 05:11:21;;;;;;;4.95;0.90;;;9.50;99.90;;;;;;5053902;28;20070;-66
2021/11/01 05:13:47;;;;;;;3.08;0.80;;;9.40;99.90;;;;;;5033971;28;20462;-66
2021/11/01 05:16:21;;;;;;;6.82;1.23;;;9.40;99.90;;;;;;5033453;28;20112;-66
2021/11/01 05:19:02;;;;;;;5.57;1.27;;;9.40;99.90;;;;;;5032984;28;20636;-66
2021/11/01 05:23:58;;;;;;;10.68;1.90;;;9.40;99.90;;;;;;5052903;28;20033;-66
2021/11/01 05:27:23;;;;;;;4.85;1.70;;;9.40;99.90;;;;;;5053572;28;20057;-67
2021/11/01 05:29:11;;;;;;;6.38;1.65;;;9.40;99.90;;;;;;5049274;28;20383;-66
2021/11/01 05:31:46;;;;;;;6.85;1.77;;;9.40;99.90;;;;;;5037670;28;20132;-66
2021/11/01 05:34:15;;;;;;;3.40;1.17;;;9.40;99.90;;;;;;5053379;28;20021;-66
2021/11/01 05:36:41;;;;;;;4.68;1.67;;;9.40;99.90;;;;;;5050607;28;20029;-67
2021/11/01 05:39:07;;;;;;;4.75;1.70;;;9.40;99.90;;;;;;5043686;28;20041;-67
2021/11/01 05:41:33;;;;;;;7.20;2.00;;;9.40;99.90;;;;;;5034721;28;20048;-67
2021/11/01 05:43:59;;;;;;;6.50;2.58;;;9.50;99.90;;;;;;5053164;28;20094;-66
2021/11/01 05:46:33;;;;;;;5.55;2.00;;;9.40;99.90;;;;;;5052947;28;20100;-67
2021/11/01 05:48:59;;;;;;;9.18;2.00;;;9.40;99.90;;;;;;5053328;28;20029;-66
2021/11/01 05:51:25;;;;;;;7.38;2.10;;;9.50;99.90;;;;;;5051042;28;20474;-66
2021/11/01 05:53:55;;;;;;;8.10;2.63;;;9.40;99.90;;;;;;5032445;28;20471;-66
2021/11/01 05:56:30;;;;;;;8.32;1.88;;;9.40;99.90;;;;;;5033165;28;20060;-66
2021/11/01 06:01:38;;;;;;;6.60;1.33;;;9.50;99.90;;;;;;5033363;28;20167;-66
2021/11/01 06:04:19;;;;;;;5.95;1.30;;;9.40;99.90;;;;;;5052726;28;20029;-66
2021/11/01 06:09:57;;;;;;;6.47;1.48;;;9.50;99.90;;;;;;5033087;28;20040;-66
2021/11/01 06:15:02;;;;;;;5.40;1.30;;;9.50;99.90;;;;;;5050843;28;20028;-66
2021/11/01 06:17:28;;;;;;;6.55;1.20;;;9.40;99.90;;;;;;5048001;28;20078;-66
2021/11/01 06:19:53;;;;;;;7.93;1.65;;;9.50;99.90;;;;;;5050670;28;20025;-67
2021/11/01 06:22:19;;;;;;;4.22;1.40;;;9.40;99.90;;;;;;5051401;28;20113;-68
2021/11/01 06:24:52;;;;;;;8.18;1.52;;;9.50;99.90;;;;;;5050163;28;20021;-66
2021/11/01 06:27:21;;;;;;;6.38;1.60;;;9.50;99.90;;;;;;5050207;28;20038;-67
2021/11/01 06:40:38;;;;;;;6.30;1.63;;;9.50;99.90;;;;;;5050627;28;20040;-68
2021/11/01 06:43:16;;;;;;;4.68;1.50;;;9.50;99.90;;;;;;5050238;28;20025;-68
2021/11/01 06:56:04;;;;;;;3.03;0.35;;;9.40;99.90;;;;;;5049920;28;20029;-67
2021/11/01 07:17:41;;;;;;;2.28;0.60;;;8.80;99.90;;;;;;5050203;28;20044;-68
2021/11/01 07:20:14;;;;;;;0.85;0.40;;;8.80;99.90;;;;;;5048857;28;20052;-68
2021/11/01 08:22:53;;;;;;;2.25;0.57;;;8.70;99.90;;;;;;5052569;28;20040;-67
2021/11/01 08:39:01;;;;;;;2.47;0.50;;;8.80;99.90;;;;;;5052365;28;20482;-68
2021/11/01 09:05:58;;;;;;;0.75;0.43;;;9.00;99.90;;;;;;5048611;28;20024;-67
2021/11/01 09:26:37;;;;;;;6.07;0.90;;;9.20;99.90;;;;;;5049246;28;20028;-67
2021/11/01 09:29:25;;;;;;;2.92;0.60;;;9.20;99.90;;;;;;5052332;28;20028;-68
2021/11/01 09:42:47;;;;;;;3.08;0.70;;;9.40;99.90;;;;;;5049911;28;20088;-68
2021/11/01 09:45:14;;;;;;;5.00;0.63;;;9.40;99.90;;;;;;5049793;28;20696;-69
2021/11/01 09:47:43;;;;;;;2.58;0.50;;;9.40;99.90;;;;;;5050747;28;20103;-68
2021/11/01 09:50:11;;;;;;;1.80;0.40;;;9.50;99.90;;;;;;5048263;28;20032;-69
2021/11/01 09:52:37;;;;;;;1.83;0.52;;;9.50;99.90;;;;;;5050595;28;20017;-69
2021/11/01 09:55:30;;;;;;;7.22;1.10;;;9.60;99.90;;;;;;5045952;28;20094;-68
2021/11/01 10:00:35;;;;;;;3.88;0.98;;;9.70;99.90;;;;;;5028708;28;20044;-68
2021/11/01 10:03:01;;;;;;;1.02;0.40;;;9.80;99.90;;;;;;5050093;28;20049;-69
2021/11/01 10:05:27;;;;;;;1.80;0.47;;;9.80;99.90;;;;;;5051577;28;20059;-68
2021/11/01 10:07:53;;;;;;;2.50;0.82;;;9.90;99.90;;;;;;5050381;28;20021;-68
2021/11/01 10:10:20;;;;;;;2.78;0.57;;;9.90;99.90;;;;;;5050659;28;20111;-68
2021/11/01 10:12:49;;;;;;;1.15;0.40;;;10.00;99.90;;;;;;5050508;28;20083;-68
2021/11/01 10:18:15;;;;;;;3.38;0.57;;;10.00;99.90;;;;;;5050517;28;20059;-68
2021/11/01 10:20:52;;;;;;;1.35;0.50;;;10.00;99.90;;;;;;5050292;28;20050;-68
2021/11/01 10:23:23;;;;;;;1.27;0.60;;;10.00;99.90;;;;;;5048574;28;20033;-69
2021/11/01 10:26:04;;;;;;;1.75;0.50;;;10.00;99.90;;;;;;5047340;28;20036;-69
2021/11/01 10:28:34;;;;;;;1.05;0.50;;;10.00;99.90;;;;;;5049584;28;20435;-68
2021/11/01 10:31:11;;;;;;;1.92;0.40;;;10.00;99.90;;;;;;5052086;28;20440;-70
2021/11/01 10:33:46;;;;;;;1.83;0.65;;;10.00;99.90;;;;;;5053100;28;20144;-68
2021/11/01 10:36:28;;;;;;;3.15;0.80;;;10.00;99.90;;;;;;5052395;28;20025;-68
2021/11/01 10:38:57;;;;;;;0.98;0.73;;;10.00;99.90;;;;;;5049689;28;20029;-72
2021/11/01 10:41:31;;;;;;;1.50;0.87;;;9.90;99.90;;;;;;5051895;28;20044;-72
2021/11/01 11:11:37;;;;;;;2.78;0.77;;;10.30;99.90;;;;;;5051338;28;20667;-66
2021/11/01 11:19:59;;;;;;;3.83;0.60;;;10.30;99.90;;;;;;5051485;28;20051;-67
2021/11/01 11:22:54;;;;;;;0.68;0.47;;;10.30;99.90;;;;;;5052089;28;20037;-72
2021/11/01 11:37:12;;;;;;;3.33;0.73;;;10.40;99.90;;;;;;5055043;28;20393;-69
2021/11/01 11:40:02;;;;;;;2.30;0.75;;;10.60;99.90;;;;;;5055116;28;20048;-72
2021/11/01 11:48:10;;;;;;;2.03;0.63;;;10.90;99.90;;;;;;5054311;28;20027;-72
2021/11/01 11:50:37;;;;;;;3.80;0.80;;;10.90;99.90;;;;;;5054740;28;20443;-73
2021/11/01 11:53:15;;;;;;;3.65;0.70;;;10.90;99.90;;;;;;5054845;28;20099;-71
2021/11/01 11:55:42;;;;;;;2.13;0.77;;;10.90;99.90;;;;;;5049614;28;20059;-73
2021/11/01 11:58:11;;;;;;;1.67;0.77;;;10.90;99.90;;;;;;5054530;28;20048;-73
2021/11/01 12:00:37;;;;;;;1.30;0.65;;;10.80;99.90;;;;;;5054959;28;20029;-71
2021/11/01 12:03:15;;;;;;;1.80;0.70;;;10.70;99.90;;;;;;5055631;28;20067;-72
2021/11/01 12:05:48;;;;;;;1.45;0.80;;;10.70;99.90;;;;;;5053362;28;20033;-72
2021/11/01 12:08:25;;;;;;;1.92;1.00;;;10.70;99.90;;;;;;5054760;28;20115;-72
2021/11/01 12:18:53;;;;;;;2.38;1.25;;;10.70;99.90;;;;;;5053983;28;20146;-72
2021/11/01 12:21:21;;;;;;;2.25;1.10;;;10.70;99.90;;;;;;5040777;28;20108;-73
2021/11/01 12:23:48;;;;;;;2.42;1.02;;;10.70;99.90;;;;;;5060356;28;20025;-72
2021/11/01 12:26:17;;;;;;;1.17;1.02;;;10.80;99.90;;;;;;5058568;28;20056;-72
2021/11/01 12:28:48;;;;;;;4.45;1.45;;;10.80;99.90;;;;;;5053324;28;20056;-72
2021/11/01 12:31:16;;;;;;;1.83;1.40;;;10.80;99.90;;;;;;5054078;28;20029;-72
2021/11/01 12:33:53;;;;;;;1.70;1.30;;;10.80;99.90;;;;;;5053407;28;20033;-71
2021/11/01 12:36:31;;;;;;;3.47;1.27;;;10.90;99.90;;;;;;5048267;28;20368;-70
2021/11/01 12:39:15;;;;;;;2.55;1.25;;;10.80;99.90;;;;;;5053071;28;20020;-71
2021/11/01 12:57:32;;;;;;;2.13;1.30;;;10.70;99.90;;;;;;5040953;28;20043;-73
2021/11/01 12:59:59;;;;;;;2.55;1.30;;;10.70;99.90;;;;;;5052904;28;20029;-71
2021/11/01 13:02:26;;;;;;;4.55;1.58;;;10.70;99.90;;;;;;5053593;28;20029;-71
2021/11/01 13:04:56;;;;;;;2.35;1.50;;;10.70;99.90;;;;;;5052273;28;20028;-72
2021/11/01 13:12:57;;;;;;;9.18;2.20;;;10.70;99.90;;;;;;5052489;28;20414;-69
2021/11/01 13:18:17;;;;;;;6.93;2.15;;;10.70;99.90;;;;;;5052775;28;20123;-70
2021/11/01 13:20:53;;;;;;;3.55;1.98;;;10.70;99.90;;;;;;5047166;28;20048;-69
2021/11/01 13:23:19;;;;;;;3.28;1.83;;;10.70;99.90;;;;;;5053294;28;20025;-69
2021/11/01 13:26:00;;;;;;;3.70;1.50;;;10.80;99.90;;;;;;5051101;28;20426;-71
2021/11/01 13:39:56;;;;;;;2.30;1.43;;;10.80;99.90;;;;;;5035463;28;20068;-70
2021/11/01 13:42:22;;;;;;;3.95;1.80;;;10.80;99.90;;;;;;5033030;28;20067;-73
2021/11/01 13:44:48;;;;;;;3.25;2.10;;;10.80;99.90;;;;;;5038445;28;20544;-73
2021/11/01 13:47:16;;;;;;;3.08;1.65;;;10.80;99.90;;;;;;5052811;28;20490;-72
2021/11/01 13:49:44;;;;;;;2.92;1.92;;;10.80;99.90;;;;;;5051993;28;20371;-71
2021/11/01 13:55:02;;;;;;;5.97;2.10;;;10.80;99.90;;;;;;5051644;28;20032;-71
2021/11/01 13:57:31;;;;;;;2.58;1.85;;;10.80;99.90;;;;;;5052180;28;20037;-73
2021/11/01 14:11:03;;;;;;;3.45;1.80;;;10.80;99.90;;;;;;5051248;28;20116;-72
2021/11/01 14:16:20;;;;;;;2.25;1.48;;;10.90;99.90;;;;;;5051669;28;20076;-72
2021/11/01 14:54:51;;;;;;;5.15;2.00;;;11.00;99.90;;;;;;5050197;28;20029;-71
2021/11/01 14:57:00;;;;;;;7.82;1.70;;;11.00;99.90;;;;;;5051320;28;20501;-69
2021/11/01 15:25:20;;;;;;;4.90;1.75;;;11.00;99.90;;;;;;5050570;28;20131;-72
2021/11/01 15:37:58;;;;;;;2.95;1.80;;;11.10;99.90;;;;;;5050147;28;20036;-72
2021/11/01 15:40:37;;;;;;;3.30;2.00;;;11.00;99.90;;;;;;5050659;28;20048;-72
2021/11/01 16:18:35;;;;;;;5.30;2.38;;;10.30;99.90;;;;;;5053943;28;20144;-73
2021/11/01 16:21:01;;;;;;;5.15;2.05;;;10.30;99.90;;;;;;5053581;28;20506;-73
2021/11/01 16:23:36;;;;;;;4.00;2.50;;;10.30;99.90;;;;;;5053552;28;20065;-72
2021/11/01 16:26:13;;;;;;;6.20;2.50;;;10.20;99.90;;;;;;5032062;28;20033;-71
2021/11/01 16:28:39;;;;;;;2.83;2.28;;;10.20;99.90;;;;;;5046657;28;20033;-72
2021/11/01 16:31:26;;;;;;;3.15;2.15;;;10.20;99.90;;;;;;5052891;28;20605;-71
2021/11/01 16:33:58;;;;;;;4.43;2.10;;;10.20;99.90;;;;;;5053052;28;20036;-71
2021/11/01 16:37:01;;;;;;;2.97;2.17;;;10.10;99.90;;;;;;5054093;28;20047;-71
2021/11/01 16:39:17;;;;;;;5.65;2.40;;;10.10;99.90;;;;;;5053096;28;20045;-72
2021/11/01 16:41:50;;;;;;;3.63;1.90;;;10.10;99.90;;;;;;5048972;28;20048;-72
2021/11/01 16:44:36;;;;;;;4.53;1.85;;;10.00;99.90;;;;;;5053164;28;20142;-70
2021/11/01 16:47:02;;;;;;;4.13;1.95;;;10.00;99.90;;;;;;5052073;28;20029;-68
2021/11/01 16:49:30;;;;;;;3.92;1.90;;;10.00;99.90;;;;;;5051625;28;20056;-74
2021/11/01 16:51:56;;;;;;;3.35;2.08;;;10.10;99.90;;;;;;5053012;28;20017;-73
2021/11/01 16:54:31;;;;;;;3.85;1.63;;;10.00;99.90;;;;;;5053653;28;20033;-73
2021/11/01 17:02:29;;;;;;;4.57;2.65;;;10.00;99.90;;;;;;5052789;28;20040;-72
2021/11/01 17:05:11;;;;;;;3.60;2.30;;;10.00;99.90;;;;;;5051499;28;20086;-72
2021/11/01 17:21:26;;;;;;;3.90;2.25;;;9.90;99.90;;;;;;5048876;28;20662;-69
2021/11/01 18:39:07;;;;;;;4.85;1.90;;;9.00;99.90;;;;;;5050875;28;20028;-72
2021/11/01 18:52:00;;;;;;;3.88;2.60;;;9.10;99.90;;;;;;5050555;28;20035;-69
2021/11/01 18:54:29;;;;;;;2.83;1.98;;;9.10;99.90;;;;;;5050873;28;20033;-72
2021/11/01 18:56:58;;;;;;;2.85;1.55;;;9.10;99.90;;;;;;5051038;28;20032;-70
2021/11/01 18:59:26;;;;;;;2.25;1.50;;;9.10;99.90;;;;;;5050379;28;20478;-74
2021/11/01 19:02:34;;;;;;;2.28;1.60;;;9.10;99.90;;;;;;5049839;28;20571;-69
2021/11/01 19:04:55;;;;;;;2.70;1.60;;;9.00;99.90;;;;;;5048882;28;20041;-70
2021/11/01 19:08:10;;;;;;;1.90;1.38;;;9.00;99.90;;;;;;5049752;28;20031;-71
2021/11/01 20:05:29;;;;;;;2.38;1.00;;;8.00;99.90;;;;;;5054074;28;20116;-71
2021/11/01 21:26:15;;;;;;;5.97;1.10;;;6.90;99.90;;;;;;5049057;28;20043;-72
2021/11/01 21:28:41;;;;;;;3.25;1.55;;;7.00;99.90;;;;;;5050104;28;20116;-72
2021/11/01 21:31:06;;;;;;;2.42;1.00;;;7.00;99.90;;;;;;5050559;28;20318;-72
2021/11/01 21:33:34;;;;;;;1.90;0.73;;;7.00;99.90;;;;;;5050952;28;20025;-72
2021/11/01 21:36:05;;;;;;;1.45;1.10;;;6.90;99.90;;;;;;5049269;28;20425;-72
2021/11/01 21:38:31;;;;;;;3.33;1.27;;;6.90;99.90;;;;;;5049983;28;20444;-71
2021/11/01 21:40:57;;;;;;;3.13;1.10;;;6.90;99.90;;;;;;5050194;28;20075;-72
2021/11/01 21:43:22;;;;;;;2.55;1.00;;;6.90;99.90;;;;;;5048868;28;20520;-72
2021/11/01 21:45:49;;;;;;;3.45;1.25;;;6.90;99.90;;;;;;5050248;28;20428;-72
2021/11/01 21:48:14;;;;;;;4.35;1.23;;;6.80;99.90;;;;;;5051022;28;20053;-72
2021/11/01 21:50:45;;;;;;;4.20;1.33;;;6.70;99.90;;;;;;5050251;28;20446;-72
2021/11/01 21:53:11;;;;;;;;;;;6.70;99.90;;;;;;5050614;28;20563;-72
2021/11/01 21:55:37;;;;;;;6.05;1.30;;;6.70;99.90;;;;;;5050603;28;19912;-72
2021/11/01 21:58:55;;;;;;;7.80;1.13;;;6.70;99.90;;;;;;5049747;28;20398;-72
2021/11/01 22:42:18;;;;;;;3.20;1.90;;;6.30;99.90;;;;;;5047616;28;20285;-71
2021/11/01 22:47:42;;;;;;;3.88;1.67;;;6.10;99.90;;;;;;5049536;28;20033;-72
2021/11/01 22:57:51;;;;;;;5.20;2.80;;;5.90;99.90;;;;;;5051214;28;20090;-71
2021/11/01 23:00:22;;;;;;;6.55;3.15;;;5.90;99.90;;;;;;5051216;28;20061;-72
2021/11/01 23:02:54;;;;;;;7.82;3.78;;;6.00;99.90;;;;;;5034501;28;20025;-72
2021/11/01 23:06:40;;;;;;;5.20;3.33;;;6.00;99.90;;;;;;5051987;28;20048;-72
2021/11/01 23:32:55;;;;;;;2.30;1.30;;;6.90;99.90;;;;;;5049161;28;20067;-72
2021/11/01 23:35:21;;;;;;;4.63;1.20;;;7.00;99.90;;;;;;5049137;28;20052;-72
2021/11/01 23:37:47;;;;;;;2.70;1.10;;;7.10;99.90;;;;;;5050400;28;20032;-71
2021/11/01 23:40:12;;;;;;;3.92;1.58;;;7.30;99.90;;;;;;5048112;28;20047;-72
2021/11/01 23:42:38;;;;;;;6.43;1.40;;;7.40;99.90;;;;;;5048641;28;20429;-72
2021/11/01 23:45:04;;;;;;;3.58;1.30;;;7.50;99.90;;;;;;5048978;28;20079;-72
2021/11/01 23:47:30;;;;;;;2.63;1.10;;;7.60;99.90;;;;;;5049965;28;20087;-72
2021/11/01 23:49:56;;;;;;;1.67;0.95;;;7.60;99.90;;;;;;5044775;28;20029;-72
2021/11/01 23:52:23;;;;;;;5.20;1.10;;;7.70;99.90;;;;;;5049757;28;20025;-72
2021/11/01 23:54:49;;;;;;;2.60;1.00;;;7.80;99.90;;;;;;5048511;28;20025;-72
2021/11/01 23:57:16;;;;;;;4.35;1.20;;;7.90;99.90;;;;;;5048989;28;20121;-72
2021/11/01 23:59:47;;;;;;;4.10;1.17;;;8.00;99.90;;;;;;5050053;28;20076;-72
